Time;durP1;ratioP1;P1;durP2;ratioP2;P2;SDS_P1;SDS_P2;PMS_P1;PMS_P2;Temp;Humidity;BMP_temperature;BMP_pressure;BME280_temperature;BME280_humidity;BME280_pressure;Samples;Min_cycle;Max_cycle;Signal;HPM_P1;HPM_P2
2022/06/26 00:01:22;;;;;;;5.73;5.33;;;19.30;99.90;;;;;;5123791;28;20475;-86
2022/06/26 00:03:49;;;;;;;4.53;4.13;;;19.20;99.90;;;;;;5121905;28;20449;-86
2022/06/26 00:06:16;;;;;;;5.63;5.33;;;19.20;99.90;;;;;;5109137;28;20458;-84
2022/06/26 00:08:43;;;;;;;4.30;3.77;;;19.20;99.90;;;;;;5102201;28;20442;-85
2022/06/26 00:11:09;;;;;;;4.67;4.37;;;19.20;99.90;;;;;;5111826;28;20476;-86
2022/06/26 00:13:36;;;;;;;5.10;4.70;;;19.10;99.90;;;;;;5114978;28;20461;-84
2022/06/26 00:16:03;;;;;;;5.10;4.70;;;19.00;99.90;;;;;;5101500;28;20449;-86
2022/06/26 00:18:31;;;;;;;4.50;4.20;;;19.00;99.90;;;;;;5107057;28;20563;-86
2022/06/26 00:20:58;;;;;;;3.90;3.60;;;19.10;99.90;;;;;;5121437;28;20468;-86
2022/06/26 00:23:25;;;;;;;3.90;3.60;;;19.00;99.90;;;;;;5123975;28;20452;-83
2022/06/26 00:25:51;;;;;;;4.57;4.20;;;19.00;99.90;;;;;;5123324;28;20446;-83
2022/06/26 00:28:18;;;;;;;3.50;3.20;;;18.90;99.90;;;;;;5118146;28;20743;-83
2022/06/26 00:30:45;;;;;;;3.27;2.97;;;18.80;99.90;;;;;;5100375;28;20839;-85
2022/06/26 00:33:12;;;;;;;2.73;2.40;;;18.80;99.90;;;;;;5114476;28;20546;-82
2022/06/26 00:35:40;;;;;;;2.83;2.63;;;18.70;99.90;;;;;;5116299;28;20445;-83
2022/06/26 00:38:07;;;;;;;2.40;2.20;;;18.70;99.90;;;;;;5115700;28;20480;-83
2022/06/26 00:40:34;;;;;;;2.27;2.17;;;18.80;99.90;;;;;;5116323;28;20462;-85
2022/06/26 00:43:00;;;;;;;3.30;2.23;;;18.90;99.90;;;;;;5115242;28;20540;-83
2022/06/26 00:45:27;;;;;;;2.20;2.10;;;19.00;99.90;;;;;;5116398;28;20928;-83
2022/06/26 00:47:54;;;;;;;2.00;1.90;;;19.10;99.90;;;;;;5101199;28;20446;-83
2022/06/26 00:50:21;;;;;;;1.60;1.60;;;19.10;99.90;;;;;;5095976;28;20447;-84
2022/06/26 00:52:50;;;;;;;1.97;1.60;;;19.20;99.90;;;;;;5110060;28;20449;-83
2022/06/26 00:55:17;;;;;;;2.63;2.50;;;19.20;99.90;;;;;;5117317;28;20459;-85
2022/06/26 00:57:44;;;;;;;2.20;2.03;;;19.20;99.90;;;;;;5116200;28;20481;-85
2022/06/26 01:00:13;;;;;;;2.53;2.33;;;19.30;99.90;;;;;;5117541;28;21157;-85
2022/06/26 01:02:39;;;;;;;2.27;2.07;;;19.30;99.90;;;;;;5118675;28;20484;-84
2022/06/26 01:05:08;;;;;;;2.30;2.20;;;19.40;99.90;;;;;;5107791;28;20462;-86
2022/06/26 01:07:35;;;;;;;2.37;2.27;;;19.40;99.90;;;;;;5098697;28;20833;-85
2022/06/26 01:10:05;;;;;;;4.80;2.53;;;19.30;99.90;;;;;;5111076;28;20444;-85
2022/06/26 01:12:32;;;;;;;2.33;2.07;;;19.40;99.90;;;;;;5120531;28;20542;-83
2022/06/26 01:15:00;;;;;;;2.10;2.00;;;19.40;99.90;;;;;;5116187;28;20441;-83
2022/06/26 01:17:27;;;;;;;2.27;2.17;;;19.40;99.90;;;;;;5112168;28;20507;-85
2022/06/26 01:19:59;;;;;;;3.60;2.20;;;19.40;99.90;;;;;;5094106;28;20442;-84
2022/06/26 01:22:29;;;;;;;1.93;1.83;;;19.40;99.90;;;;;;5095389;28;20488;-85
2022/06/26 01:24:56;;;;;;;2.37;2.17;;;19.50;99.90;;;;;;5113637;28;20519;-85
2022/06/26 01:27:23;;;;;;;2.23;2.10;;;19.50;99.90;;;;;;5105517;28;20454;-85
2022/06/26 01:29:50;;;;;;;2.33;2.23;;;19.60;99.90;;;;;;5104868;28;20453;-85
2022/06/26 01:32:17;;;;;;;2.77;2.57;;;19.60;99.90;;;;;;5115662;28;20492;-85
2022/06/26 01:34:43;;;;;;;2.80;2.60;;;19.60;99.90;;;;;;5112997;28;20448;-86
2022/06/26 01:37:10;;;;;;;3.23;2.70;;;19.60;99.90;;;;;;5094830;28;20449;-86
2022/06/26 01:39:38;;;;;;;2.53;2.33;;;19.70;99.90;;;;;;5095444;28;20447;-86
2022/06/26 01:42:05;;;;;;;2.40;2.30;;;19.80;99.90;;;;;;5095511;28;20470;-86
2022/06/26 01:44:32;;;;;;;2.07;1.97;;;19.70;99.90;;;;;;5099300;28;20452;-86
2022/06/26 01:46:59;;;;;;;2.80;2.60;;;19.60;99.90;;;;;;5114990;28;20450;-85
2022/06/26 01:49:26;;;;;;;2.27;2.07;;;19.40;99.90;;;;;;5113179;28;20451;-86
2022/06/26 01:51:53;;;;;;;2.10;2.00;;;19.40;99.90;;;;;;5095892;28;20542;-87
2022/06/26 01:54:20;;;;;;;2.20;2.00;;;19.40;99.90;;;;;;5115055;28;20479;-87
2022/06/26 01:56:48;;;;;;;2.20;2.10;;;19.30;99.90;;;;;;5117467;28;20456;-87
2022/06/26 01:59:15;;;;;;;2.23;2.10;;;19.40;99.90;;;;;;5102431;28;20492;-87
2022/06/26 02:01:42;;;;;;;2.33;2.23;;;19.50;99.90;;;;;;5099277;28;20476;-87
2022/06/26 02:04:09;;;;;;;2.43;2.33;;;19.50;99.90;;;;;;5094932;28;20454;-85
2022/06/26 02:06:35;;;;;;;2.63;2.43;;;19.70;99.90;;;;;;5093354;28;20453;-86
2022/06/26 02:09:03;;;;;;;5.13;3.13;;;19.70;99.90;;;;;;5108530;28;20456;-86
2022/06/26 02:14:16;;;;;;;3.47;3.10;;;19.70;99.90;;;;;;5116589;28;20604;-87
2022/06/26 02:16:43;;;;;;;2.70;2.50;;;19.70;99.90;;;;;;5116765;28;20806;-87
2022/06/26 02:19:10;;;;;;;2.80;2.60;;;19.60;99.90;;;;;;5116710;28;20484;-86
2022/06/26 02:21:39;;;;;;;2.77;2.60;;;19.60;99.90;;;;;;5115644;28;20568;-87
2022/06/26 02:24:06;;;;;;;2.50;2.30;;;19.70;99.90;;;;;;5115825;28;20556;-85
2022/06/26 02:26:33;;;;;;;2.43;2.33;;;19.50;99.90;;;;;;5116227;28;21105;-87
2022/06/26 02:29:00;;;;;;;2.13;2.03;;;19.40;99.90;;;;;;5102595;28;20457;-86
2022/06/26 02:31:28;;;;;;;2.40;2.30;;;19.20;99.90;;;;;;5096695;28;20480;-86
2022/06/26 02:33:55;;;;;;;2.87;2.67;;;19.20;99.90;;;;;;5097464;28;20464;-86
2022/06/26 02:36:21;;;;;;;2.80;2.60;;;19.20;99.90;;;;;;5098101;28;20439;-86
2022/06/26 02:38:48;;;;;;;2.07;1.93;;;19.30;99.90;;;;;;5112287;28;20484;-87
2022/06/26 02:41:15;;;;;;;2.60;2.40;;;19.30;99.90;;;;;;5122515;28;20470;-87
2022/06/26 02:43:42;;;;;;;2.40;2.23;;;19.30;99.90;;;;;;5105584;28;20457;-87
2022/06/26 02:46:09;;;;;;;2.03;1.93;;;19.40;99.90;;;;;;5103350;28;20454;-86
2022/06/26 02:48:37;;;;;;;5.50;2.50;;;19.40;99.90;;;;;;5120503;28;20517;-87
2022/06/26 02:51:04;;;;;;;2.43;2.33;;;19.40;99.90;;;;;;5123024;28;20484;-84
2022/06/26 02:53:31;;;;;;;2.63;2.53;;;19.30;99.90;;;;;;5118176;28;20451;-86
2022/06/26 02:55:57;;;;;;;2.30;2.20;;;19.40;99.90;;;;;;5116971;28;20453;-85
2022/06/26 02:58:24;;;;;;;2.63;2.43;;;19.40;99.90;;;;;;5117103;28;20477;-84
2022/06/26 03:00:52;;;;;;;2.33;2.17;;;19.40;99.90;;;;;;5116916;28;20468;-86
2022/06/26 03:03:19;;;;;;;2.50;2.40;;;19.30;99.90;;;;;;5118860;28;20489;-85
2022/06/26 03:05:47;;;;;;;2.37;2.20;;;19.30;99.90;;;;;;5120610;28;20451;-86
2022/06/26 03:08:13;;;;;;;2.80;2.60;;;19.30;99.90;;;;;;5115223;28;20454;-87
2022/06/26 03:10:40;;;;;;;3.03;2.83;;;19.40;99.90;;;;;;5098845;28;20481;-87
2022/06/26 03:13:07;;;;;;;2.60;2.50;;;19.50;99.90;;;;;;5100198;28;20774;-86
2022/06/26 03:15:34;;;;;;;2.97;2.70;;;19.50;99.90;;;;;;5100027;28;20450;-86
2022/06/26 03:18:02;;;;;;;2.60;2.40;;;19.50;99.90;;;;;;5100083;28;20481;-85
2022/06/26 03:20:29;;;;;;;2.07;1.97;;;19.60;99.90;;;;;;5099085;28;20866;-86
2022/06/26 03:22:58;;;;;;;2.30;2.20;;;19.60;99.90;;;;;;5102794;28;20463;-85
2022/06/26 03:25:24;;;;;;;2.33;2.23;;;19.60;99.90;;;;;;5113748;28;20534;-84
2022/06/26 03:27:51;;;;;;;2.67;2.50;;;19.60;99.90;;;;;;5102662;28;20449;-84
2022/06/26 03:30:18;;;;;;;2.43;2.33;;;19.60;99.90;;;;;;5122248;28;20457;-87
2022/06/26 03:32:45;;;;;;;3.13;2.57;;;19.60;99.90;;;;;;5120454;28;20445;-87
2022/06/26 03:35:12;;;;;;;3.20;2.50;;;19.50;99.90;;;;;;5099496;28;20827;-86
2022/06/26 03:37:39;;;;;;;2.60;2.40;;;19.60;99.90;;;;;;5100182;28;20447;-87
2022/06/26 03:40:08;;;;;;;5.13;2.47;;;19.60;99.90;;;;;;5100780;28;20454;-84
2022/06/26 03:42:36;;;;;;;2.70;2.50;;;19.60;99.90;;;;;;5097686;28;20479;-84
2022/06/26 03:45:03;;;;;;;2.17;2.07;;;19.60;99.90;;;;;;5095378;28;20457;-84
2022/06/26 03:47:30;;;;;;;2.90;2.70;;;19.60;99.90;;;;;;5107192;28;20457;-85
2022/06/26 03:49:57;;;;;;;3.10;2.90;;;19.60;99.90;;;;;;5106724;28;20442;-85
2022/06/26 03:52:24;;;;;;;2.90;2.70;;;19.50;99.90;;;;;;5098500;28;20846;-84
2022/06/26 03:54:51;;;;;;;2.77;2.57;;;19.60;99.90;;;;;;5086676;28;20539;-86
2022/06/26 03:57:19;;;;;;;4.10;2.63;;;19.60;99.90;;;;;;5094930;28;20455;-84
2022/06/26 03:59:46;;;;;;;3.00;2.77;;;19.60;99.90;;;;;;5092503;28;20483;-85
2022/06/26 04:02:13;;;;;;;2.47;2.37;;;19.60;99.90;;;;;;5095643;28;20458;-86
2022/06/26 04:04:39;;;;;;;3.10;2.90;;;19.60;99.90;;;;;;5099486;28;20751;-86
2022/06/26 04:07:06;;;;;;;3.00;2.83;;;19.60;99.90;;;;;;5086284;28;20450;-85
2022/06/26 04:09:33;;;;;;;2.80;2.60;;;19.60;99.90;;;;;;5112648;28;20476;-87
2022/06/26 04:12:00;;;;;;;5.60;3.00;;;19.70;99.90;;;;;;5098195;28;20825;-86
2022/06/26 04:14:28;;;;;;;3.20;3.00;;;19.60;99.90;;;;;;5098618;28;20458;-86
2022/06/26 04:16:55;;;;;;;3.73;3.53;;;19.60;99.90;;;;;;5098058;28;20451;-86
2022/06/26 04:19:22;;;;;;;2.87;2.60;;;19.60;99.90;;;;;;5098182;28;20485;-87
2022/06/26 04:21:48;;;;;;;3.00;2.80;;;19.50;99.90;;;;;;5104922;28;20469;-85
2022/06/26 04:24:15;;;;;;;2.70;2.50;;;19.50;99.90;;;;;;5089857;28;20446;-87
2022/06/26 04:26:44;;;;;;;3.87;3.43;;;19.60;99.90;;;;;;5090695;28;20454;-87
2022/06/26 04:29:11;;;;;;;3.33;3.07;;;19.50;99.90;;;;;;5108366;28;20450;-86
2022/06/26 04:31:39;;;;;;;3.53;3.33;;;19.50;99.90;;;;;;5107541;28;20462;-84
2022/06/26 04:34:05;;;;;;;2.93;2.80;;;19.50;99.90;;;;;;5092575;28;20446;-84
2022/06/26 04:36:32;;;;;;;3.33;3.13;;;19.40;99.90;;;;;;5102133;28;20467;-84
2022/06/26 04:38:59;;;;;;;3.10;3.00;;;19.40;99.90;;;;;;5100658;28;20477;-84
2022/06/26 04:41:34;;;;;;;2.80;2.60;;;19.40;99.90;;;;;;5099509;28;20474;-84
2022/06/26 04:44:01;;;;;;;2.83;2.63;;;19.40;99.90;;;;;;5100529;28;20445;-83
2022/06/26 04:46:28;;;;;;;2.90;2.70;;;19.40;99.90;;;;;;5100496;28;20452;-83
2022/06/26 04:48:56;;;;;;;2.83;2.63;;;19.50;99.90;;;;;;5098210;28;20458;-84
2022/06/26 04:51:23;;;;;;;4.93;4.53;;;19.60;99.90;;;;;;5089707;28;20481;-83
2022/06/26 04:53:49;;;;;;;3.30;3.10;;;19.60;99.90;;;;;;5091400;28;20443;-84
2022/06/26 04:56:16;;;;;;;3.53;3.23;;;19.70;99.90;;;;;;5090452;28;20793;-84
2022/06/26 04:58:43;;;;;;;3.70;3.40;;;19.80;99.90;;;;;;5107345;28;20497;-84
2022/06/26 05:01:10;;;;;;;3.17;2.97;;;19.90;99.90;;;;;;5089198;28;20473;-83
2022/06/26 05:03:37;;;;;;;4.93;2.97;;;20.00;99.90;;;;;;5083894;28;20941;-84
2022/06/26 05:06:05;;;;;;;3.17;3.07;;;20.10;99.90;;;;;;5100410;28;20445;-86
2022/06/26 05:08:31;;;;;;;2.90;2.70;;;20.20;99.90;;;;;;5095064;28;20466;-86
2022/06/26 05:10:58;;;;;;;5.33;2.97;;;20.30;99.90;;;;;;5106438;28;20486;-85
2022/06/26 05:13:25;;;;;;;3.03;2.83;;;20.30;99.90;;;;;;5110981;28;20449;-85
2022/06/26 05:15:52;;;;;;;2.90;2.70;;;20.40;99.90;;;;;;5113154;22;20497;-77
2022/06/26 05:18:18;;;;;;;2.87;2.53;;;20.50;99.90;;;;;;5095680;28;20461;-80
2022/06/26 05:20:45;;;;;;;3.43;3.23;;;20.60;99.90;;;;;;5098223;28;21049;-80
2022/06/26 05:23:14;;;;;;;3.27;2.97;;;20.60;99.90;;;;;;5104536;28;20457;-79
2022/06/26 05:25:41;;;;;;;3.40;3.10;;;20.50;99.90;;;;;;5114145;28;20478;-79
2022/06/26 05:28:08;;;;;;;4.27;3.90;;;20.40;99.90;;;;;;5104937;28;20477;-79
2022/06/26 05:30:35;;;;;;;3.23;3.03;;;20.10;99.90;;;;;;5085670;28;20473;-79
2022/06/26 05:33:02;;;;;;;3.63;3.40;;;20.10;99.90;;;;;;5102377;28;20452;-80
2022/06/26 05:35:29;;;;;;;3.77;3.47;;;20.00;99.90;;;;;;5097523;28;20481;-80
2022/06/26 05:37:55;;;;;;;4.03;3.10;;;19.90;99.90;;;;;;5080801;28;20452;-80
2022/06/26 05:40:24;;;;;;;3.57;3.27;;;20.00;99.90;;;;;;5097554;28;20482;-79
2022/06/26 05:42:53;;;;;;;3.37;3.13;;;20.10;99.90;;;;;;5089226;28;20444;-79
2022/06/26 05:45:20;;;;;;;3.40;3.13;;;20.00;99.90;;;;;;5084650;28;20471;-80
2022/06/26 05:47:47;;;;;;;3.63;3.43;;;19.90;99.90;;;;;;5086296;28;20456;-79
2022/06/26 05:50:14;;;;;;;3.30;3.10;;;20.10;99.90;;;;;;5084924;28;20443;-80
2022/06/26 05:52:40;;;;;;;3.90;3.60;;;20.20;99.90;;;;;;5077982;28;20456;-79
2022/06/26 05:55:08;;;;;;;4.23;3.93;;;20.10;99.90;;;;;;5076918;28;20546;-80
2022/06/26 05:57:36;;;;;;;3.53;3.33;;;20.10;99.90;;;;;;5089157;28;20458;-79
2022/06/26 06:00:05;;;;;;;4.00;3.67;;;19.80;99.90;;;;;;5091670;28;20825;-79
2022/06/26 06:02:32;;;;;;;3.70;3.40;;;19.70;99.90;;;;;;5077117;28;20820;-80
2022/06/26 06:04:59;;;;;;;4.10;3.67;;;19.80;99.90;;;;;;5081485;28;20472;-80
2022/06/26 06:07:26;;;;;;;3.37;3.07;;;19.80;99.90;;;;;;5097005;28;20455;-80
2022/06/26 06:09:52;;;;;;;3.90;3.60;;;19.80;99.90;;;;;;5094290;28;20452;-80
2022/06/26 06:12:19;;;;;;;3.60;3.30;;;19.80;99.90;;;;;;5076847;28;20439;-80
2022/06/26 06:14:47;;;;;;;3.17;2.97;;;19.80;99.90;;;;;;5094713;28;21021;-80
2022/06/26 06:19:58;;;;;;;2.80;2.60;;;20.10;99.90;;;;;;5077752;28;20577;-80
2022/06/26 06:22:25;;;;;;;3.93;3.53;;;20.20;99.90;;;;;;5090402;28;20453;-79
2022/06/26 06:24:52;;;;;;;3.87;3.67;;;20.20;99.90;;;;;;5097048;28;20473;-80
2022/06/26 06:27:19;;;;;;;3.00;2.80;;;20.30;99.90;;;;;;5095619;28;20473;-80
2022/06/26 06:29:47;;;;;;;1.50;1.40;;;20.40;99.90;;;;;;5097157;28;20445;-79
2022/06/26 06:32:14;;;;;;;3.23;1.57;;;20.40;99.90;;;;;;5085598;28;20451;-80
2022/06/26 06:34:40;;;;;;;2.40;2.20;;;20.30;99.90;;;;;;5082894;28;20446;-80
2022/06/26 06:37:08;;;;;;;2.30;2.10;;;20.40;99.90;;;;;;5096743;28;20454;-80
2022/06/26 06:39:34;;;;;;;2.10;1.90;;;20.60;99.90;;;;;;5095437;28;20474;-80
2022/06/26 06:42:01;;;;;;;1.60;1.50;;;20.70;99.90;;;;;;5096405;28;20923;-80
2022/06/26 06:44:28;;;;;;;1.60;1.53;;;20.70;99.90;;;;;;5093049;28;20457;-79
2022/06/26 06:46:56;;;;;;;1.40;1.30;;;20.50;99.90;;;;;;5076542;28;20504;-80
2022/06/26 06:49:23;;;;;;;1.70;1.70;;;20.50;99.90;;;;;;5078874;28;20452;-80
2022/06/26 06:51:49;;;;;;;2.40;1.40;;;20.70;99.90;;;;;;5095560;28;20451;-80
2022/06/26 06:54:16;;;;;;;1.23;1.13;;;20.80;99.90;;;;;;5089169;28;20462;-80
2022/06/26 06:56:43;;;;;;;1.97;1.37;;;20.80;99.90;;;;;;5076080;28;20471;-80
2022/06/26 06:59:09;;;;;;;1.80;1.70;;;20.90;99.90;;;;;;5080874;28;20485;-80
2022/06/26 07:01:36;;;;;;;1.30;1.30;;;21.00;99.90;;;;;;5095950;28;20948;-79
2022/06/26 07:04:04;;;;;;;1.77;1.67;;;21.10;99.90;;;;;;5092802;28;20448;-80
2022/06/26 07:06:31;;;;;;;3.80;1.80;;;21.20;99.90;;;;;;5076236;28;20477;-80
2022/06/26 07:08:58;;;;;;;1.50;1.40;;;21.30;99.90;;;;;;5095582;28;20470;-80
2022/06/26 07:11:24;;;;;;;1.43;1.43;;;21.20;99.90;;;;;;5093944;28;20455;-79
2022/06/26 07:13:51;;;;;;;1.80;1.70;;;21.10;99.90;;;;;;5096286;28;20446;-79
2022/06/26 07:16:18;;;;;;;1.50;1.50;;;21.20;99.90;;;;;;5083845;28;20475;-80
2022/06/26 07:18:45;;;;;;;2.43;2.20;;;21.20;99.90;;;;;;5076172;28;20972;-79
2022/06/26 07:21:13;;;;;;;1.90;1.80;;;21.20;99.90;;;;;;5086054;28;20463;-80
2022/06/26 07:23:40;;;;;;;2.57;2.47;;;21.30;99.90;;;;;;5098410;28;20453;-80
2022/06/26 07:26:06;;;;;;;1.90;1.80;;;21.50;99.90;;;;;;5090119;28;20475;-80
2022/06/26 07:28:33;;;;;;;1.87;1.77;;;21.50;99.90;;;;;;5079742;28;20456;-79
2022/06/26 07:31:00;;;;;;;2.10;2.00;;;21.60;99.90;;;;;;5087320;28;20514;-80
2022/06/26 07:36:12;;;;;;;2.60;2.40;;;21.40;99.90;;;;;;5079744;28;20494;-80
2022/06/26 07:38:39;;;;;;;2.23;2.03;;;21.50;99.90;;;;;;5081072;28;20449;-80
2022/06/26 07:41:06;;;;;;;2.40;2.20;;;21.60;99.90;;;;;;5080313;28;20511;-80
2022/06/26 07:43:33;;;;;;;2.43;2.23;;;21.60;99.90;;;;;;5082878;28;20455;-80
2022/06/26 07:45:59;;;;;;;2.03;1.93;;;21.60;99.90;;;;;;5100915;28;20477;-79
2022/06/26 07:48:26;;;;;;;1.90;1.80;;;21.60;99.90;;;;;;5098608;28;20804;-80
2022/06/26 07:50:53;;;;;;;2.40;2.20;;;21.60;99.90;;;;;;5079800;28;20447;-80
2022/06/26 07:53:22;;;;;;;2.40;2.20;;;21.60;99.90;;;;;;5081842;28;20602;-80
2022/06/26 07:55:48;;;;;;;2.30;2.10;;;21.70;99.90;;;;;;5079835;28;20468;-80
2022/06/26 07:58:15;;;;;;;2.47;2.30;;;21.70;99.90;;;;;;5085191;28;20454;-80
2022/06/26 08:00:42;;;;;;;2.50;2.30;;;21.90;99.90;;;;;;5096457;28;20478;-80
2022/06/26 08:03:11;;;;;;;3.03;2.17;;;21.90;99.90;;;;;;5079677;28;20449;-80
2022/06/26 08:05:38;;;;;;;2.70;2.50;;;22.00;99.90;;;;;;5087217;28;20556;-80
2022/06/26 08:08:07;;;;;;;1.90;1.80;;;22.10;99.90;;;;;;5067122;28;20448;-81
2022/06/26 08:10:36;;;;;;;2.00;1.90;;;22.00;99.90;;;;;;5071292;28;20457;-80
2022/06/26 08:13:03;;;;;;;2.33;2.23;;;22.00;99.90;;;;;;5071091;28;20455;-80
2022/06/26 08:15:30;;;;;;;2.40;2.20;;;22.10;99.90;;;;;;5070495;28;20472;-80
2022/06/26 08:17:57;;;;;;;3.27;1.93;;;22.10;99.90;;;;;;5075824;28;20459;-80
2022/06/26 08:20:24;;;;;;;5.50;2.80;;;22.10;99.90;;;;;;5098715;28;21003;-81
2022/06/26 08:22:51;;;;;;;2.70;2.60;;;22.10;99.90;;;;;;5095362;28;20526;-81
2022/06/26 08:25:18;;;;;;;2.40;2.30;;;22.20;99.90;;;;;;5079310;28;20464;-80
2022/06/26 08:27:46;;;;;;;2.30;2.20;;;22.20;99.90;;;;;;5090094;28;20518;-79
2022/06/26 08:30:13;;;;;;;2.30;2.20;;;22.20;99.90;;;;;;5079346;28;20448;-79
2022/06/26 08:32:40;;;;;;;2.33;2.17;;;22.30;99.90;;;;;;5081469;28;20449;-79
2022/06/26 08:35:08;;;;;;;2.67;2.50;;;22.40;99.90;;;;;;5079648;28;20493;-79
2022/06/26 08:37:34;;;;;;;7.93;2.53;;;22.40;99.80;;;;;;5092347;28;20795;-83
2022/06/26 08:40:01;;;;;;;2.13;2.03;;;22.40;99.60;;;;;;5080528;28;20489;-83
2022/06/26 08:42:28;;;;;;;2.30;2.20;;;22.50;99.60;;;;;;5079587;28;20453;-82
2022/06/26 08:44:58;;;;;;;2.27;2.17;;;22.60;99.80;;;;;;5095893;28;20465;-80
2022/06/26 08:47:27;;;;;;;1.90;1.80;;;22.70;99.50;;;;;;5100096;28;20472;-79
2022/06/26 08:49:54;;;;;;;2.67;2.50;;;22.80;99.40;;;;;;5084295;28;20450;-80
2022/06/26 08:52:22;;;;;;;3.67;1.90;;;22.80;99.20;;;;;;5089821;28;20448;-82
2022/06/26 08:54:49;;;;;;;1.80;1.70;;;23.00;99.80;;;;;;5091051;28;20846;-81
2022/06/26 08:57:16;;;;;;;1.90;1.83;;;23.10;99.70;;;;;;5099806;28;20941;-82
2022/06/26 08:59:43;;;;;;;2.53;2.33;;;23.20;98.50;;;;;;5091350;28;20483;-80
2022/06/26 09:02:12;;;;;;;2.20;2.10;;;23.20;98.40;;;;;;5080477;28;20461;-80
2022/06/26 09:04:39;;;;;;;2.60;2.50;;;23.30;97.60;;;;;;5085660;28;20537;-80
2022/06/26 09:07:07;;;;;;;2.10;2.00;;;23.40;98.30;;;;;;5099078;28;20453;-81
2022/06/26 09:09:37;;;;;;;2.13;1.93;;;23.40;98.30;;;;;;5088396;28;20453;-82
2022/06/26 09:12:06;;;;;;;2.00;1.90;;;23.50;98.00;;;;;;5084764;28;20990;-82
2022/06/26 09:14:32;;;;;;;2.50;2.10;;;23.50;97.60;;;;;;5099464;28;20447;-80
2022/06/26 09:17:00;;;;;;;1.60;1.50;;;23.60;97.60;;;;;;5094073;28;20463;-80
2022/06/26 09:19:33;;;;;;;2.30;2.10;;;23.50;97.40;;;;;;5079700;28;20451;-80
2022/06/26 09:22:08;;;;;;;1.73;1.63;;;23.60;97.50;;;;;;5083854;28;20590;-79
2022/06/26 09:24:37;;;;;;;1.97;1.90;;;23.70;98.10;;;;;;5099460;28;20450;-80
2022/06/26 09:27:06;;;;;;;4.70;3.43;;;23.80;97.30;;;;;;5091814;28;20448;-78
2022/06/26 09:29:33;;;;;;;2.17;1.97;;;23.80;97.30;;;;;;5076981;28;20447;-79
2022/06/26 09:32:12;;;;;;;1.70;1.60;;;23.90;97.60;;;;;;5082084;28;20950;-79
2022/06/26 09:34:44;;;;;;;1.60;1.50;;;23.90;96.70;;;;;;5057531;28;20452;-79
2022/06/26 09:37:11;;;;;;;3.50;1.80;;;24.10;96.90;;;;;;5079352;28;20489;-80
2022/06/26 09:39:38;;;;;;;1.90;1.80;;;24.20;95.60;;;;;;5080473;28;20835;-78
2022/06/26 09:42:19;;;;;;;2.30;1.90;;;24.40;95.80;;;;;;5077078;28;20454;-79
2022/06/26 09:44:46;;;;;;;1.53;1.43;;;24.50;95.40;;;;;;5086192;28;20523;-80
2022/06/26 09:47:22;;;;;;;1.80;1.70;;;24.80;95.40;;;;;;5098005;28;20461;-84
2022/06/26 09:49:52;;;;;;;1.83;1.70;;;24.90;94.70;;;;;;5089482;28;20441;-79
2022/06/26 09:52:20;;;;;;;2.17;1.97;;;24.90;94.70;;;;;;5078842;28;20909;-79
2022/06/26 09:54:47;;;;;;;1.60;1.50;;;25.10;94.80;;;;;;5084995;28;20467;-79
2022/06/26 09:57:14;;;;;;;1.93;1.83;;;25.40;94.60;;;;;;5096337;28;20851;-79
2022/06/26 09:59:42;;;;;;;1.27;1.27;;;25.70;93.70;;;;;;5092699;28;20459;-82
2022/06/26 10:07:49;;;;;;;1.93;1.80;;;26.10;92.30;;;;;;5076163;28;20462;-83
2022/06/26 10:10:18;;;;;;;1.83;1.73;;;26.40;93.40;;;;;;5068208;28;20548;-84
2022/06/26 10:12:47;;;;;;;1.90;1.80;;;26.70;93.10;;;;;;5085841;28;20978;-84
2022/06/26 10:15:16;;;;;;;1.73;1.63;;;26.90;91.80;;;;;;5073972;28;20993;-84
2022/06/26 10:18:06;;;;;;;1.53;1.50;;;26.60;91.00;;;;;;5064594;28;20448;-81
2022/06/26 10:20:37;;;;;;;1.40;1.30;;;26.30;91.50;;;;;;5095693;28;20537;-81
2022/06/26 10:23:04;;;;;;;1.70;1.60;;;25.90;91.60;;;;;;5099282;28;20469;-82
2022/06/26 10:25:32;;;;;;;2.00;1.43;;;26.00;92.30;;;;;;5081801;28;20470;-81
2022/06/26 10:27:59;;;;;;;2.00;1.90;;;26.10;92.60;;;;;;5078924;28;20452;-82
2022/06/26 10:30:29;;;;;;;1.77;1.53;;;26.10;91.50;;;;;;5067095;28;20445;-82
2022/06/26 10:33:10;;;;;;;1.80;1.70;;;26.00;92.30;;;;;;5068473;28;20509;-82
2022/06/26 10:35:40;;;;;;;1.67;1.57;;;26.00;92.20;;;;;;5098155;28;20480;-82
2022/06/26 10:38:21;;;;;;;1.57;1.47;;;26.30;93.00;;;;;;5078787;28;20459;-81
2022/06/26 10:43:44;;;;;;;1.70;1.60;;;26.60;91.90;;;;;;5097577;28;20470;-79
2022/06/26 10:46:13;;;;;;;1.73;1.63;;;26.80;90.50;;;;;;5095480;28;20476;-80
2022/06/26 10:48:51;;;;;;;1.63;1.53;;;26.70;90.30;;;;;;5096253;28;20448;-80
2022/06/26 10:51:27;;;;;;;1.50;1.50;;;26.70;90.50;;;;;;5093525;28;20504;-80
2022/06/26 10:53:54;;;;;;;1.40;1.30;;;26.70;90.00;;;;;;5097011;28;20478;-80
2022/06/26 10:56:21;;;;;;;2.10;1.90;;;27.00;90.10;;;;;;5079984;28;20464;-80
2022/06/26 10:58:48;;;;;;;2.07;1.97;;;27.00;90.30;;;;;;5078852;28;20820;-80
2022/06/26 11:01:16;;;;;;;2.03;1.93;;;27.50;90.80;;;;;;5094647;28;20508;-80
2022/06/26 11:03:44;;;;;;;2.30;2.20;;;28.20;90.60;;;;;;5100301;28;20452;-80
2022/06/26 11:06:12;;;;;;;2.40;1.83;;;28.20;87.30;;;;;;5085720;28;20491;-80
2022/06/26 11:08:44;;;;;;;1.80;1.70;;;28.30;87.10;;;;;;5081688;28;20453;-80
2022/06/26 11:11:14;;;;;;;1.47;1.40;;;28.30;86.70;;;;;;5080030;28;20449;-81
2022/06/26 11:13:49;;;;;;;1.63;1.53;;;28.50;86.50;;;;;;5089880;28;20453;-81
2022/06/26 11:16:16;;;;;;;3.20;1.57;;;28.60;86.70;;;;;;5126198;22;20488;-84
2022/06/26 11:18:43;;;;;;;2.70;1.87;;;29.00;87.10;;;;;;5129914;27;20443;-84
2022/06/26 11:21:10;;;;;;;1.70;1.60;;;29.00;83.70;;;;;;5140861;27;20498;-84
2022/06/26 11:23:38;;;;;;;1.70;1.60;;;29.40;84.20;;;;;;5133428;27;20446;-84
2022/06/26 11:26:08;;;;;;;1.80;1.70;;;29.80;82.90;;;;;;5120688;28;20546;-82
2022/06/26 11:28:37;;;;;;;1.90;1.80;;;30.10;80.80;;;;;;5121188;28;20471;-83
2022/06/26 11:31:05;;;;;;;1.60;1.50;;;30.10;79.20;;;;;;5120056;28;20452;-84
2022/06/26 11:33:34;;;;;;;1.90;1.80;;;29.60;79.00;;;;;;5107293;28;20460;-84
2022/06/26 11:36:06;;;;;;;1.63;1.20;;;29.30;78.10;;;;;;5099119;28;20470;-84
2022/06/26 11:38:33;;;;;;;1.93;1.70;;;29.20;80.50;;;;;;5099829;28;20458;-84
2022/06/26 11:41:01;;;;;;;1.67;1.57;;;29.40;81.10;;;;;;5099222;28;20489;-85
2022/06/26 11:43:30;;;;;;;2.23;1.67;;;29.50;79.10;;;;;;5099813;28;20447;-84
2022/06/26 11:45:58;;;;;;;2.00;1.90;;;29.80;80.80;;;;;;5099319;28;20557;-84
2022/06/26 11:48:25;;;;;;;1.60;1.30;;;30.40;81.40;;;;;;5099755;28;20442;-83
2022/06/26 11:50:54;;;;;;;1.30;1.30;;;30.60;75.00;;;;;;5099435;28;20453;-84
2022/06/26 11:53:23;;;;;;;1.70;1.60;;;30.40;73.60;;;;;;5111812;28;20458;-83
2022/06/26 11:55:52;;;;;;;1.83;1.33;;;30.20;76.20;;;;;;5116568;28;20478;-85
2022/06/26 11:58:22;;;;;;;1.53;1.33;;;30.10;76.60;;;;;;5119783;28;20461;-84
2022/06/26 12:00:50;;;;;;;1.30;1.30;;;30.30;75.60;;;;;;5119843;28;20469;-84
2022/06/26 12:03:18;;;;;;;1.83;1.73;;;30.30;74.70;;;;;;5118868;28;20793;-85
2022/06/26 12:05:45;;;;;;;1.70;1.60;;;30.70;76.90;;;;;;5115499;28;20478;-86
2022/06/26 12:08:22;;;;;;;2.13;1.33;;;31.20;74.60;;;;;;5099458;28;20453;-83
2022/06/26 12:10:50;;;;;;;1.80;1.70;;;31.70;73.30;;;;;;5099232;28;20448;-85
2022/06/26 12:13:25;;;;;;;2.27;2.17;;;31.90;70.10;;;;;;5098996;28;20802;-85
2022/06/26 12:15:53;;;;;;;1.57;1.33;;;31.60;68.70;;;;;;5098666;28;20487;-84
2022/06/26 12:18:20;;;;;;;1.50;1.40;;;31.60;70.60;;;;;;5114098;28;20452;-85
2022/06/26 12:20:51;;;;;;;2.40;1.47;;;31.30;68.10;;;;;;5118856;28;20517;-85
2022/06/26 12:23:18;;;;;;;1.50;1.50;;;31.00;70.30;;;;;;5104454;28;20448;-84
2022/06/26 12:25:49;;;;;;;1.20;1.20;;;31.00;70.40;;;;;;5099950;28;20828;-85
2022/06/26 12:28:23;;;;;;;2.07;1.77;;;31.10;69.80;;;;;;5119454;28;20504;-85
2022/06/26 12:30:50;;;;;;;1.80;1.70;;;31.60;68.70;;;;;;5118351;28;20441;-85
2022/06/26 12:33:19;;;;;;;1.60;1.50;;;31.60;65.40;;;;;;5119194;28;20450;-85
2022/06/26 12:35:46;;;;;;;1.50;1.40;;;31.50;66.90;;;;;;5118063;28;20845;-84
2022/06/26 12:38:12;;;;;;;1.83;1.37;;;31.60;65.00;;;;;;5119485;28;20458;-83
2022/06/26 12:40:39;;;;;;;1.33;1.20;;;31.90;65.60;;;;;;5118848;28;20519;-82
2022/06/26 12:43:06;;;;;;;1.73;1.63;;;32.30;64.30;;;;;;5127461;27;20472;-82
2022/06/26 12:45:33;;;;;;;1.53;1.43;;;32.40;63.30;;;;;;5103817;28;20486;-83
2022/06/26 12:48:00;;;;;;;1.30;1.20;;;32.30;61.70;;;;;;5099134;28;20454;-83
2022/06/26 12:50:28;;;;;;;1.60;1.50;;;32.30;60.80;;;;;;5098903;28;20449;-83
2022/06/26 12:52:55;;;;;;;1.30;1.30;;;32.70;61.50;;;;;;5112609;28;20489;-83
2022/06/26 12:55:21;;;;;;;1.13;1.07;;;32.60;62.10;;;;;;5119434;28;20470;-82
2022/06/26 12:57:48;;;;;;;2.50;1.63;;;33.20;61.80;;;;;;5119789;28;20479;-85
2022/06/26 13:00:15;;;;;;;1.63;1.53;;;33.50;59.90;;;;;;5119474;28;20458;-83
2022/06/26 13:02:42;;;;;;;1.30;1.30;;;33.20;58.70;;;;;;5120157;28;20691;-85
2022/06/26 13:05:09;;;;;;;1.70;1.60;;;33.30;58.80;;;;;;5120003;28;20463;-85
2022/06/26 13:07:37;;;;;;;1.53;1.30;;;33.10;60.50;;;;;;5103913;28;20454;-83